sensor_id;sensor_type;location;lat;lon;timestamp;P1;durP1;ratioP1;P2;durP2;ratioP2
25249;SDS011;13201;51.148;13.738;2022-08-25T00:00:17;12.38;;;7.60;;
25249;SDS011;13201;51.148;13.738;2022-08-25T00:02:46;11.05;;;7.72;;
25249;SDS011;13201;51.148;13.738;2022-08-25T00:05:12;11.20;;;8.07;;
25249;SDS011;13201;51.148;13.738;2022-08-25T00:07:38;10.52;;;6.93;;
25249;SDS011;13201;51.148;13.738;2022-08-25T00:10:04;10.40;;;7.57;;
25249;SDS011;13201;51.148;13.738;2022-08-25T00:12:31;9.65;;;7.25;;
25249;SDS011;13201;51.148;13.738;2022-08-25T00:14:57;10.52;;;7.20;;
25249;SDS011;13201;51.148;13.738;2022-08-25T00:17:22;12.13;;;8.63;;
25249;SDS011;13201;51.148;13.738;2022-08-25T00:19:48;13.27;;;9.60;;
25249;SDS011;13201;51.148;13.738;2022-08-25T00:22:14;15.57;;;8.20;;
25249;SDS011;13201;51.148;13.738;2022-08-25T00:24:40;12.15;;;8.75;;
25249;SDS011;13201;51.148;13.738;2022-08-25T00:27:05;13.30;;;8.25;;
25249;SDS011;13201;51.148;13.738;2022-08-25T00:29:32;15.85;;;7.78;;
25249;SDS011;13201;51.148;13.738;2022-08-25T00:31:58;11.60;;;8.15;;
25249;SDS011;13201;51.148;13.738;2022-08-25T00:34:26;12.00;;;8.20;;
25249;SDS011;13201;51.148;13.738;2022-08-25T00:36:56;12.00;;;8.05;;
25249;SDS011;13201;51.148;13.738;2022-08-25T00:39:22;13.10;;;7.60;;
25249;SDS011;13201;51.148;13.738;2022-08-25T00:41:49;9.50;;;6.85;;
25249;SDS011;13201;51.148;13.738;2022-08-25T00:44:17;12.77;;;7.80;;
25249;SDS011;13201;51.148;13.738;2022-08-25T00:46:48;10.23;;;7.47;;
25249;SDS011;13201;51.148;13.738;2022-08-25T00:49:18;9.35;;;6.40;;
25249;SDS011;13201;51.148;13.738;2022-08-25T00:51:54;13.00;;;6.97;;
25249;SDS011;13201;51.148;13.738;2022-08-25T00:54:24;8.95;;;6.65;;
25249;SDS011;13201;51.148;13.738;2022-08-25T00:56:57;9.98;;;6.45;;
25249;SDS011;13201;51.148;13.738;2022-08-25T00:59:24;10.82;;;7.90;;
25249;SDS011;13201;51.148;13.738;2022-08-25T01:01:51;15.52;;;8.55;;
25249;SDS011;13201;51.148;13.738;2022-08-25T01:04:18;15.95;;;8.57;;
25249;SDS011;13201;51.148;13.738;2022-08-25T01:32:14;11.63;;;7.82;;
25249;SDS011;13201;51.148;13.738;2022-08-25T01:34:40;14.02;;;8.75;;
25249;SDS011;13201;51.148;13.738;2022-08-25T01:37:08;11.65;;;7.93;;
25249;SDS011;13201;51.148;13.738;2022-08-25T01:39:36;13.30;;;8.00;;
25249;SDS011;13201;51.148;13.738;2022-08-25T01:44:30;14.88;;;10.00;;
25249;SDS011;13201;51.148;13.738;2022-08-25T01:47:00;18.02;;;10.85;;
25249;SDS011;13201;51.148;13.738;2022-08-25T01:51:56;13.73;;;9.33;;
25249;SDS011;13201;51.148;13.738;2022-08-25T01:54:29;13.52;;;9.35;;
25249;SDS011;13201;51.148;13.738;2022-08-25T01:56:54;13.00;;;9.40;;
25249;SDS011;13201;51.148;13.738;2022-08-25T01:59:21;12.18;;;8.82;;
25249;SDS011;13201;51.148;13.738;2022-08-25T02:01:47;13.27;;;8.80;;
25249;SDS011;13201;51.148;13.738;2022-08-25T02:04:13;13.10;;;8.50;;
25249;SDS011;13201;51.148;13.738;2022-08-25T02:06:38;12.48;;;8.95;;
25249;SDS011;13201;51.148;13.738;2022-08-25T02:09:06;12.30;;;8.37;;
25249;SDS011;13201;51.148;13.738;2022-08-25T02:11:35;12.52;;;8.02;;
25249;SDS011;13201;51.148;13.738;2022-08-25T02:14:03;14.85;;;8.68;;
25249;SDS011;13201;51.148;13.738;2022-08-25T02:16:31;13.02;;;8.25;;
25249;SDS011;13201;51.148;13.738;2022-08-25T02:18:58;13.90;;;8.30;;
25249;SDS011;13201;51.148;13.738;2022-08-25T02:21:23;13.13;;;8.70;;
25249;SDS011;13201;51.148;13.738;2022-08-25T02:23:49;14.35;;;8.18;;
25249;SDS011;13201;51.148;13.738;2022-08-25T02:26:15;10.20;;;7.40;;
25249;SDS011;13201;51.148;13.738;2022-08-25T02:28:43;10.88;;;7.72;;
25249;SDS011;13201;51.148;13.738;2022-08-25T02:33:36;10.43;;;7.28;;
25249;SDS011;13201;51.148;13.738;2022-08-25T02:36:02;9.00;;;7.20;;
25249;SDS011;13201;51.148;13.738;2022-08-25T02:38:28;13.02;;;8.07;;
25249;SDS011;13201;51.148;13.738;2022-08-25T02:40:57;15.13;;;8.70;;
25249;SDS011;13201;51.148;13.738;2022-08-25T02:43:24;14.25;;;8.60;;
25249;SDS011;13201;51.148;13.738;2022-08-25T02:45:51;12.82;;;8.95;;
25249;SDS011;13201;51.148;13.738;2022-08-25T02:48:17;12.48;;;8.70;;
25249;SDS011;13201;51.148;13.738;2022-08-25T02:50:47;14.93;;;10.20;;
25249;SDS011;13201;51.148;13.738;2022-08-25T02:53:14;15.93;;;10.45;;
25249;SDS011;13201;51.148;13.738;2022-08-25T02:55:40;13.70;;;9.73;;
25249;SDS011;13201;51.148;13.738;2022-08-25T02:58:06;13.75;;;8.85;;
25249;SDS011;13201;51.148;13.738;2022-08-25T03:00:33;11.38;;;8.65;;
25249;SDS011;13201;51.148;13.738;2022-08-25T03:02:59;11.37;;;8.33;;
25249;SDS011;13201;51.148;13.738;2022-08-25T03:05:25;14.30;;;8.45;;
25249;SDS011;13201;51.148;13.738;2022-08-25T03:07:50;12.73;;;8.00;;
25249;SDS011;13201;51.148;13.738;2022-08-25T03:10:16;11.88;;;8.52;;
25249;SDS011;13201;51.148;13.738;2022-08-25T03:12:43;13.20;;;8.13;;
25249;SDS011;13201;51.148;13.738;2022-08-25T03:15:10;15.20;;;8.43;;
25249;SDS011;13201;51.148;13.738;2022-08-25T03:17:41;11.70;;;8.18;;
25249;SDS011;13201;51.148;13.738;2022-08-25T03:22:33;15.23;;;9.20;;
25249;SDS011;13201;51.148;13.738;2022-08-25T03:25:00;12.35;;;8.75;;
25249;SDS011;13201;51.148;13.738;2022-08-25T03:27:45;13.50;;;8.25;;
25249;SDS011;13201;51.148;13.738;2022-08-25T03:30:13;12.75;;;8.43;;
25249;SDS011;13201;51.148;13.738;2022-08-25T03:32:40;14.02;;;7.95;;
25249;SDS011;13201;51.148;13.738;2022-08-25T03:35:06;15.48;;;8.27;;
25249;SDS011;13201;51.148;13.738;2022-08-25T03:39:58;19.23;;;8.33;;
25249;SDS011;13201;51.148;13.738;2022-08-25T03:42:25;12.00;;;7.78;;
25249;SDS011;13201;51.148;13.738;2022-08-25T03:44:50;21.63;;;8.82;;
25249;SDS011;13201;51.148;13.738;2022-08-25T03:47:16;10.75;;;7.57;;
25249;SDS011;13201;51.148;13.738;2022-08-25T03:49:42;17.88;;;7.28;;
25249;SDS011;13201;51.148;13.738;2022-08-25T03:52:07;10.18;;;7.80;;
25249;SDS011;13201;51.148;13.738;2022-08-25T03:54:33;11.73;;;7.55;;
25249;SDS011;13201;51.148;13.738;2022-08-25T03:56:58;11.40;;;7.82;;
25249;SDS011;13201;51.148;13.738;2022-08-25T03:59:24;11.75;;;8.18;;
25249;SDS011;13201;51.148;13.738;2022-08-25T04:01:51;13.30;;;8.32;;
25249;SDS011;13201;51.148;13.738;2022-08-25T04:04:17;12.45;;;8.32;;
25249;SDS011;13201;51.148;13.738;2022-08-25T04:06:43;14.95;;;8.20;;
25249;SDS011;13201;51.148;13.738;2022-08-25T04:09:09;14.48;;;8.18;;
25249;SDS011;13201;51.148;13.738;2022-08-25T04:11:35;13.88;;;8.07;;
25249;SDS011;13201;51.148;13.738;2022-08-25T04:14:01;14.43;;;7.97;;
25249;SDS011;13201;51.148;13.738;2022-08-25T04:16:29;10.65;;;7.50;;
25249;SDS011;13201;51.148;13.738;2022-08-25T04:18:57;14.07;;;8.15;;
25249;SDS011;13201;51.148;13.738;2022-08-25T04:21:24;12.00;;;8.18;;
25249;SDS011;13201;51.148;13.738;2022-08-25T04:23:51;11.02;;;7.68;;
25249;SDS011;13201;51.148;13.738;2022-08-25T04:26:25;13.50;;;8.43;;
25249;SDS011;13201;51.148;13.738;2022-08-25T04:28:57;12.27;;;8.23;;
25249;SDS011;13201;51.148;13.738;2022-08-25T04:31:24;18.65;;;9.75;;
25249;SDS011;13201;51.148;13.738;2022-08-25T04:33:51;16.77;;;9.73;;
25249;SDS011;13201;51.148;13.738;2022-08-25T04:36:17;15.27;;;9.30;;
25249;SDS011;13201;51.148;13.738;2022-08-25T04:38:44;13.20;;;8.27;;
25249;SDS011;13201;51.148;13.738;2022-08-25T04:41:11;18.13;;;9.02;;
25249;SDS011;13201;51.148;13.738;2022-08-25T04:43:39;14.55;;;8.68;;
25249;SDS011;13201;51.148;13.738;2022-08-25T04:46:27;15.35;;;8.95;;
25249;SDS011;13201;51.148;13.738;2022-08-25T04:48:54;13.98;;;9.07;;
25249;SDS011;13201;51.148;13.738;2022-08-25T04:51:21;15.68;;;9.48;;
25249;SDS011;13201;51.148;13.738;2022-08-25T04:53:49;15.77;;;9.18;;
25249;SDS011;13201;51.148;13.738;2022-08-25T04:56:21;15.55;;;9.55;;
25249;SDS011;13201;51.148;13.738;2022-08-25T04:58:51;15.52;;;10.07;;
25249;SDS011;13201;51.148;13.738;2022-08-25T05:01:19;14.57;;;9.43;;
25249;SDS011;13201;51.148;13.738;2022-08-25T05:03:47;17.38;;;10.13;;
25249;SDS011;13201;51.148;13.738;2022-08-25T05:06:17;17.40;;;10.20;;
25249;SDS011;13201;51.148;13.738;2022-08-25T05:08:42;16.15;;;10.20;;
25249;SDS011;13201;51.148;13.738;2022-08-25T05:11:09;15.50;;;9.10;;
25249;SDS011;13201;51.148;13.738;2022-08-25T05:13:37;16.75;;;9.88;;
25249;SDS011;13201;51.148;13.738;2022-08-25T05:16:03;13.98;;;9.40;;
25249;SDS011;13201;51.148;13.738;2022-08-25T05:18:30;19.92;;;9.43;;
25249;SDS011;13201;51.148;13.738;2022-08-25T05:21:00;16.52;;;9.82;;
25249;SDS011;13201;51.148;13.738;2022-08-25T05:23:28;20.77;;;12.65;;
25249;SDS011;13201;51.148;13.738;2022-08-25T05:25:54;20.45;;;12.85;;
25249;SDS011;13201;51.148;13.738;2022-08-25T05:28:20;23.23;;;14.43;;
25249;SDS011;13201;51.148;13.738;2022-08-25T05:30:45;18.27;;;12.32;;
25249;SDS011;13201;51.148;13.738;2022-08-25T05:33:13;22.38;;;11.30;;
25249;SDS011;13201;51.148;13.738;2022-08-25T05:35:40;15.60;;;10.70;;
25249;SDS011;13201;51.148;13.738;2022-08-25T05:38:05;17.55;;;10.90;;
25249;SDS011;13201;51.148;13.738;2022-08-25T05:40:31;23.15;;;12.20;;
25249;SDS011;13201;51.148;13.738;2022-08-25T05:42:57;24.15;;;11.77;;
25249;SDS011;13201;51.148;13.738;2022-08-25T05:45:23;19.92;;;11.88;;
25249;SDS011;13201;51.148;13.738;2022-08-25T05:47:48;20.98;;;12.48;;
25249;SDS011;13201;51.148;13.738;2022-08-25T05:50:14;18.77;;;11.95;;
25249;SDS011;13201;51.148;13.738;2022-08-25T05:52:41;19.55;;;10.93;;
25249;SDS011;13201;51.148;13.738;2022-08-25T05:55:07;19.00;;;11.82;;
25249;SDS011;13201;51.148;13.738;2022-08-25T05:57:33;23.55;;;13.05;;
25249;SDS011;13201;51.148;13.738;2022-08-25T05:59:59;22.65;;;12.25;;
25249;SDS011;13201;51.148;13.738;2022-08-25T06:02:24;17.23;;;11.77;;
25249;SDS011;13201;51.148;13.738;2022-08-25T06:05:08;20.92;;;12.02;;
25249;SDS011;13201;51.148;13.738;2022-08-25T06:07:39;19.23;;;12.25;;
25249;SDS011;13201;51.148;13.738;2022-08-25T06:10:05;19.27;;;13.02;;
25249;SDS011;13201;51.148;13.738;2022-08-25T06:12:35;22.33;;;14.95;;
25249;SDS011;13201;51.148;13.738;2022-08-25T06:15:02;26.02;;;15.70;;
25249;SDS011;13201;51.148;13.738;2022-08-25T06:19:54;28.97;;;16.37;;
25249;SDS011;13201;51.148;13.738;2022-08-25T06:22:20;27.92;;;15.90;;
25249;SDS011;13201;51.148;13.738;2022-08-25T06:24:46;35.45;;;15.20;;
25249;SDS011;13201;51.148;13.738;2022-08-25T06:27:13;25.58;;;15.98;;
25249;SDS011;13201;51.148;13.738;2022-08-25T06:29:38;26.48;;;16.02;;
25249;SDS011;13201;51.148;13.738;2022-08-25T06:32:04;28.08;;;16.20;;
25249;SDS011;13201;51.148;13.738;2022-08-25T06:34:30;24.77;;;15.18;;
25249;SDS011;13201;51.148;13.738;2022-08-25T06:36:56;25.07;;;16.43;;
25249;SDS011;13201;51.148;13.738;2022-08-25T06:39:22;24.08;;;15.85;;
25249;SDS011;13201;51.148;13.738;2022-08-25T06:41:52;26.95;;;16.92;;
25249;SDS011;13201;51.148;13.738;2022-08-25T06:44:18;24.35;;;16.10;;
25249;SDS011;13201;51.148;13.738;2022-08-25T06:46:45;29.63;;;17.40;;
25249;SDS011;13201;51.148;13.738;2022-08-25T06:49:11;29.73;;;17.30;;
25249;SDS011;13201;51.148;13.738;2022-08-25T06:51:36;28.58;;;16.85;;
25249;SDS011;13201;51.148;13.738;2022-08-25T06:54:03;34.13;;;18.63;;
25249;SDS011;13201;51.148;13.738;2022-08-25T06:56:30;29.80;;;19.27;;
25249;SDS011;13201;51.148;13.738;2022-08-25T06:58:56;37.17;;;19.30;;
25249;SDS011;13201;51.148;13.738;2022-08-25T07:01:23;35.20;;;20.92;;
25249;SDS011;13201;51.148;13.738;2022-08-25T07:03:50;36.42;;;20.70;;
25249;SDS011;13201;51.148;13.738;2022-08-25T07:06:23;39.45;;;19.83;;
25249;SDS011;13201;51.148;13.738;2022-08-25T07:08:55;32.67;;;19.05;;
25249;SDS011;13201;51.148;13.738;2022-08-25T07:11:20;30.73;;;19.48;;
25249;SDS011;13201;51.148;13.738;2022-08-25T07:13:46;30.52;;;18.88;;
25249;SDS011;13201;51.148;13.738;2022-08-25T07:16:13;28.50;;;17.70;;
25249;SDS011;13201;51.148;13.738;2022-08-25T07:18:40;31.35;;;17.58;;
25249;SDS011;13201;51.148;13.738;2022-08-25T07:21:06;31.80;;;18.10;;
25249;SDS011;13201;51.148;13.738;2022-08-25T07:23:32;32.40;;;18.92;;
25249;SDS011;13201;51.148;13.738;2022-08-25T07:26:06;29.63;;;19.13;;
25249;SDS011;13201;51.148;13.738;2022-08-25T07:28:42;35.45;;;19.20;;
25249;SDS011;13201;51.148;13.738;2022-08-25T07:31:08;28.27;;;18.97;;
25249;SDS011;13201;51.148;13.738;2022-08-25T07:33:34;30.75;;;18.55;;
25249;SDS011;13201;51.148;13.738;2022-08-25T07:36:00;26.17;;;18.87;;
25249;SDS011;13201;51.148;13.738;2022-08-25T07:38:26;29.63;;;18.17;;
25249;SDS011;13201;51.148;13.738;2022-08-25T07:40:59;25.55;;;17.65;;
25249;SDS011;13201;51.148;13.738;2022-08-25T07:43:26;30.42;;;18.25;;
25249;SDS011;13201;51.148;13.738;2022-08-25T07:45:52;27.17;;;17.90;;
25249;SDS011;13201;51.148;13.738;2022-08-25T07:48:17;25.67;;;17.40;;
25249;SDS011;13201;51.148;13.738;2022-08-25T07:50:44;25.67;;;17.50;;
25249;SDS011;13201;51.148;13.738;2022-08-25T07:53:12;25.95;;;15.88;;
25249;SDS011;13201;51.148;13.738;2022-08-25T07:55:39;21.45;;;14.80;;
25249;SDS011;13201;51.148;13.738;2022-08-25T07:58:06;27.40;;;14.70;;
25249;SDS011;13201;51.148;13.738;2022-08-25T08:00:33;26.02;;;14.63;;
25249;SDS011;13201;51.148;13.738;2022-08-25T08:03:01;21.48;;;14.75;;
25249;SDS011;13201;51.148;13.738;2022-08-25T08:05:31;23.25;;;14.68;;
25249;SDS011;13201;51.148;13.738;2022-08-25T08:07:57;20.33;;;13.90;;
25249;SDS011;13201;51.148;13.738;2022-08-25T08:12:51;21.55;;;13.38;;
25249;SDS011;13201;51.148;13.738;2022-08-25T08:15:17;21.35;;;12.50;;
25249;SDS011;13201;51.148;13.738;2022-08-25T08:17:43;23.70;;;12.93;;
25249;SDS011;13201;51.148;13.738;2022-08-25T08:20:09;22.83;;;13.27;;
25249;SDS011;13201;51.148;13.738;2022-08-25T08:22:36;22.27;;;11.70;;
25249;SDS011;13201;51.148;13.738;2022-08-25T08:25:07;18.33;;;12.77;;
25249;SDS011;13201;51.148;13.738;2022-08-25T08:27:33;18.08;;;10.98;;
25249;SDS011;13201;51.148;13.738;2022-08-25T08:29:59;21.48;;;10.88;;
25249;SDS011;13201;51.148;13.738;2022-08-25T08:32:25;17.98;;;11.30;;
25249;SDS011;13201;51.148;13.738;2022-08-25T08:34:51;15.32;;;10.95;;
25249;SDS011;13201;51.148;13.738;2022-08-25T08:37:17;18.20;;;11.10;;
25249;SDS011;13201;51.148;13.738;2022-08-25T08:39:44;16.90;;;10.88;;
25249;SDS011;13201;51.148;13.738;2022-08-25T08:45:20;18.13;;;11.15;;
25249;SDS011;13201;51.148;13.738;2022-08-25T08:47:52;17.85;;;11.20;;
25249;SDS011;13201;51.148;13.738;2022-08-25T08:53:12;19.55;;;11.13;;
25249;SDS011;13201;51.148;13.738;2022-08-25T08:55:54;15.80;;;8.50;;
25249;SDS011;13201;51.148;13.738;2022-08-25T08:58:29;19.67;;;9.15;;
25249;SDS011;13201;51.148;13.738;2022-08-25T09:01:09;14.38;;;8.27;;
25249;SDS011;13201;51.148;13.738;2022-08-25T09:03:41;14.10;;;7.40;;
25249;SDS011;13201;51.148;13.738;2022-08-25T09:06:26;17.90;;;6.90;;
25249;SDS011;13201;51.148;13.738;2022-08-25T09:08:54;10.98;;;6.88;;
25249;SDS011;13201;51.148;13.738;2022-08-25T09:30:26;13.57;;;5.25;;
25249;SDS011;13201;51.148;13.738;2022-08-25T09:32:57;12.75;;;6.15;;
25249;SDS011;13201;51.148;13.738;2022-08-25T09:35:29;11.65;;;5.70;;
25249;SDS011;13201;51.148;13.738;2022-08-25T09:37:57;11.88;;;5.45;;
25249;SDS011;13201;51.148;13.738;2022-08-25T09:40:24;12.52;;;5.13;;
25249;SDS011;13201;51.148;13.738;2022-08-25T09:42:53;11.57;;;5.50;;
25249;SDS011;13201;51.148;13.738;2022-08-25T09:45:41;14.15;;;5.82;;
25249;SDS011;13201;51.148;13.738;2022-08-25T09:50:46;11.93;;;5.35;;
25249;SDS011;13201;51.148;13.738;2022-08-25T09:53:13;19.45;;;5.80;;
25249;SDS011;13201;51.148;13.738;2022-08-25T09:55:40;13.18;;;5.18;;
25249;SDS011;13201;51.148;13.738;2022-08-25T09:58:17;13.73;;;5.53;;
25249;SDS011;13201;51.148;13.738;2022-08-25T10:03:59;20.52;;;5.93;;
25249;SDS011;13201;51.148;13.738;2022-08-25T10:06:43;10.40;;;4.80;;
25249;SDS011;13201;51.148;13.738;2022-08-25T10:09:13;12.27;;;4.95;;
25249;SDS011;13201;51.148;13.738;2022-08-25T10:11:55;21.75;;;5.13;;
25249;SDS011;13201;51.148;13.738;2022-08-25T10:14:26;11.57;;;5.03;;
25249;SDS011;13201;51.148;13.738;2022-08-25T10:17:14;11.80;;;5.13;;
25249;SDS011;13201;51.148;13.738;2022-08-25T10:19:40;18.42;;;5.82;;
25249;SDS011;13201;51.148;13.738;2022-08-25T10:22:09;11.20;;;5.50;;
25249;SDS011;13201;51.148;13.738;2022-08-25T10:24:49;14.90;;;5.55;;
25249;SDS011;13201;51.148;13.738;2022-08-25T10:32:46;15.40;;;5.20;;
25249;SDS011;13201;51.148;13.738;2022-08-25T10:38:36;15.05;;;5.63;;
25249;SDS011;13201;51.148;13.738;2022-08-25T10:49:49;16.17;;;5.32;;
25249;SDS011;13201;51.148;13.738;2022-08-25T10:52:22;16.48;;;6.00;;
25249;SDS011;13201;51.148;13.738;2022-08-25T10:54:56;16.67;;;5.90;;
25249;SDS011;13201;51.148;13.738;2022-08-25T11:00:17;12.93;;;5.93;;
25249;SDS011;13201;51.148;13.738;2022-08-25T11:02:53;24.33;;;6.10;;
25249;SDS011;13201;51.148;13.738;2022-08-25T11:08:28;19.33;;;6.20;;
25249;SDS011;13201;51.148;13.738;2022-08-25T11:16:42;22.77;;;6.20;;
25249;SDS011;13201;51.148;13.738;2022-08-25T11:21:52;10.15;;;5.43;;
25249;SDS011;13201;51.148;13.738;2022-08-25T11:24:34;22.95;;;6.43;;
25249;SDS011;13201;51.148;13.738;2022-08-25T11:27:30;17.98;;;5.95;;
25249;SDS011;13201;51.148;13.738;2022-08-25T11:30:06;22.42;;;6.30;;
25249;SDS011;13201;51.148;13.738;2022-08-25T11:32:35;19.85;;;6.75;;
25249;SDS011;13201;51.148;13.738;2022-08-25T11:35:03;27.48;;;7.32;;
25249;SDS011;13201;51.148;13.738;2022-08-25T11:37:31;18.33;;;6.20;;
25249;SDS011;13201;51.148;13.738;2022-08-25T11:40:01;20.55;;;6.43;;
25249;SDS011;13201;51.148;13.738;2022-08-25T11:45:41;17.80;;;5.00;;
25249;SDS011;13201;51.148;13.738;2022-08-25T11:51:32;19.67;;;6.07;;
25249;SDS011;13201;51.148;13.738;2022-08-25T11:54:13;19.15;;;6.80;;
25249;SDS011;13201;51.148;13.738;2022-08-25T11:57:36;14.18;;;5.88;;
25249;SDS011;13201;51.148;13.738;2022-08-25T12:05:00;19.95;;;7.22;;
25249;SDS011;13201;51.148;13.738;2022-08-25T12:07:56;21.55;;;6.38;;
25249;SDS011;13201;51.148;13.738;2022-08-25T12:13:26;20.25;;;6.55;;
25249;SDS011;13201;51.148;13.738;2022-08-25T12:16:30;15.32;;;6.55;;
25249;SDS011;13201;51.148;13.738;2022-08-25T12:19:22;22.67;;;5.38;;
25249;SDS011;13201;51.148;13.738;2022-08-25T12:21:48;13.65;;;5.10;;
25249;SDS011;13201;51.148;13.738;2022-08-25T12:26:50;19.83;;;5.60;;
25249;SDS011;13201;51.148;13.738;2022-08-25T12:30:23;17.27;;;5.03;;
25249;SDS011;13201;51.148;13.738;2022-08-25T12:35:08;15.25;;;5.05;;
25249;SDS011;13201;51.148;13.738;2022-08-25T12:40:51;18.25;;;7.90;;
25249;SDS011;13201;51.148;13.738;2022-08-25T12:43:26;24.40;;;4.78;;
25249;SDS011;13201;51.148;13.738;2022-08-25T12:46:40;15.90;;;4.63;;
25249;SDS011;13201;51.148;13.738;2022-08-25T12:48:57;20.80;;;4.85;;
25249;SDS011;13201;51.148;13.738;2022-08-25T12:54:18;17.02;;;4.82;;
25249;SDS011;13201;51.148;13.738;2022-08-25T12:56:58;15.13;;;5.28;;
25249;SDS011;13201;51.148;13.738;2022-08-25T13:10:54;18.52;;;4.85;;
25249;SDS011;13201;51.148;13.738;2022-08-25T13:16:01;19.77;;;6.10;;
25249;SDS011;13201;51.148;13.738;2022-08-25T13:18:31;16.27;;;6.15;;
25249;SDS011;13201;51.148;13.738;2022-08-25T13:21:15;18.83;;;5.82;;
25249;SDS011;13201;51.148;13.738;2022-08-25T13:26:31;18.98;;;5.55;;
25249;SDS011;13201;51.148;13.738;2022-08-25T13:31:32;16.23;;;5.53;;
25249;SDS011;13201;51.148;13.738;2022-08-25T13:34:01;13.30;;;5.07;;
25249;SDS011;13201;51.148;13.738;2022-08-25T13:36:30;29.08;;;6.10;;
25249;SDS011;13201;51.148;13.738;2022-08-25T13:39:19;15.38;;;4.72;;
25249;SDS011;13201;51.148;13.738;2022-08-25T13:41:48;17.30;;;5.53;;
25249;SDS011;13201;51.148;13.738;2022-08-25T13:44:15;21.75;;;6.45;;
25249;SDS011;13201;51.148;13.738;2022-08-25T13:46:42;18.08;;;4.75;;
25249;SDS011;13201;51.148;13.738;2022-08-25T13:49:10;25.50;;;4.85;;
25249;SDS011;13201;51.148;13.738;2022-08-25T13:51:36;22.23;;;5.75;;
25249;SDS011;13201;51.148;13.738;2022-08-25T13:54:04;18.42;;;5.35;;
25249;SDS011;13201;51.148;13.738;2022-08-25T13:58:58;16.90;;;5.53;;
25249;SDS011;13201;51.148;13.738;2022-08-25T14:01:30;17.20;;;5.78;;
25249;SDS011;13201;51.148;13.738;2022-08-25T14:09:40;16.65;;;5.63;;
25249;SDS011;13201;51.148;13.738;2022-08-25T14:12:30;19.33;;;6.53;;
25249;SDS011;13201;51.148;13.738;2022-08-25T14:18:04;14.70;;;5.87;;
25249;SDS011;13201;51.148;13.738;2022-08-25T14:20:31;18.70;;;5.35;;
25249;SDS011;13201;51.148;13.738;2022-08-25T14:23:12;9.52;;;5.05;;
25249;SDS011;13201;51.148;13.738;2022-08-25T14:25:47;18.02;;;5.47;;
25249;SDS011;13201;51.148;13.738;2022-08-25T14:28:15;15.57;;;5.55;;
25249;SDS011;13201;51.148;13.738;2022-08-25T14:30:51;23.50;;;6.70;;
25249;SDS011;13201;51.148;13.738;2022-08-25T14:33:24;19.85;;;5.25;;
25249;SDS011;13201;51.148;13.738;2022-08-25T14:35:53;19.77;;;5.22;;
25249;SDS011;13201;51.148;13.738;2022-08-25T14:38:20;15.23;;;5.00;;
25249;SDS011;13201;51.148;13.738;2022-08-25T14:40:46;18.85;;;4.93;;
25249;SDS011;13201;51.148;13.738;2022-08-25T14:43:12;16.85;;;5.35;;
25249;SDS011;13201;51.148;13.738;2022-08-25T14:45:40;21.50;;;5.07;;
25249;SDS011;13201;51.148;13.738;2022-08-25T14:48:08;16.55;;;5.15;;
25249;SDS011;13201;51.148;13.738;2022-08-25T14:50:38;17.70;;;5.70;;
25249;SDS011;13201;51.148;13.738;2022-08-25T14:53:04;20.25;;;5.85;;
25249;SDS011;13201;51.148;13.738;2022-08-25T14:55:30;17.97;;;6.07;;
25249;SDS011;13201;51.148;13.738;2022-08-25T14:57:56;15.50;;;5.43;;
25249;SDS011;13201;51.148;13.738;2022-08-25T15:00:21;12.83;;;5.10;;
25249;SDS011;13201;51.148;13.738;2022-08-25T15:02:47;17.33;;;5.27;;
25249;SDS011;13201;51.148;13.738;2022-08-25T15:05:15;15.90;;;5.50;;
25249;SDS011;13201;51.148;13.738;2022-08-25T15:07:43;12.30;;;5.53;;
25249;SDS011;13201;51.148;13.738;2022-08-25T15:10:28;20.10;;;5.35;;
25249;SDS011;13201;51.148;13.738;2022-08-25T15:12:53;21.77;;;5.13;;
25249;SDS011;13201;51.148;13.738;2022-08-25T15:15:19;13.90;;;5.17;;
25249;SDS011;13201;51.148;13.738;2022-08-25T15:17:45;17.50;;;4.90;;
25249;SDS011;13201;51.148;13.738;2022-08-25T15:20:11;14.48;;;5.20;;
25249;SDS011;13201;51.148;13.738;2022-08-25T15:22:38;14.90;;;5.10;;
25249;SDS011;13201;51.148;13.738;2022-08-25T15:25:04;15.55;;;4.88;;
25249;SDS011;13201;51.148;13.738;2022-08-25T15:27:30;22.42;;;5.30;;
25249;SDS011;13201;51.148;13.738;2022-08-25T15:29:57;16.90;;;5.18;;
25249;SDS011;13201;51.148;13.738;2022-08-25T15:32:23;17.38;;;5.07;;
25249;SDS011;13201;51.148;13.738;2022-08-25T15:34:49;18.50;;;6.00;;
25249;SDS011;13201;51.148;13.738;2022-08-25T15:37:15;26.13;;;4.72;;
25249;SDS011;13201;51.148;13.738;2022-08-25T15:39:42;13.35;;;4.95;;
25249;SDS011;13201;51.148;13.738;2022-08-25T15:42:09;18.92;;;5.32;;
25249;SDS011;13201;51.148;13.738;2022-08-25T15:44:39;16.92;;;5.15;;
25249;SDS011;13201;51.148;13.738;2022-08-25T15:49:31;17.10;;;5.03;;
25249;SDS011;13201;51.148;13.738;2022-08-25T15:51:57;13.15;;;4.75;;
25249;SDS011;13201;51.148;13.738;2022-08-25T15:54:24;23.17;;;5.40;;
25249;SDS011;13201;51.148;13.738;2022-08-25T15:59:16;15.50;;;4.78;;
25249;SDS011;13201;51.148;13.738;2022-08-25T16:01:41;16.57;;;4.80;;
25249;SDS011;13201;51.148;13.738;2022-08-25T16:04:08;21.98;;;5.35;;
25249;SDS011;13201;51.148;13.738;2022-08-25T16:06:34;19.40;;;5.43;;
25249;SDS011;13201;51.148;13.738;2022-08-25T16:09:00;16.35;;;6.15;;
25249;SDS011;13201;51.148;13.738;2022-08-25T16:11:28;24.10;;;10.57;;
25249;SDS011;13201;51.148;13.738;2022-08-25T16:13:54;21.90;;;8.82;;
25249;SDS011;13201;51.148;13.738;2022-08-25T16:16:22;19.00;;;6.65;;
25249;SDS011;13201;51.148;13.738;2022-08-25T16:18:49;22.70;;;6.07;;
25249;SDS011;13201;51.148;13.738;2022-08-25T16:21:17;17.98;;;5.45;;
25249;SDS011;13201;51.148;13.738;2022-08-25T16:23:45;18.75;;;5.38;;
25249;SDS011;13201;51.148;13.738;2022-08-25T16:26:11;25.30;;;6.43;;
25249;SDS011;13201;51.148;13.738;2022-08-25T16:28:38;24.55;;;5.93;;
25249;SDS011;13201;51.148;13.738;2022-08-25T16:31:07;16.38;;;5.35;;
25249;SDS011;13201;51.148;13.738;2022-08-25T16:33:34;20.98;;;5.10;;
25249;SDS011;13201;51.148;13.738;2022-08-25T16:36:06;18.35;;;4.95;;
25249;SDS011;13201;51.148;13.738;2022-08-25T16:38:37;20.05;;;4.80;;
25249;SDS011;13201;51.148;13.738;2022-08-25T16:41:04;29.25;;;5.30;;
25249;SDS011;13201;51.148;13.738;2022-08-25T16:43:34;23.73;;;5.95;;
25249;SDS011;13201;51.148;13.738;2022-08-25T16:48:27;14.27;;;4.63;;
25249;SDS011;13201;51.148;13.738;2022-08-25T16:50:54;22.23;;;5.88;;
25249;SDS011;13201;51.148;13.738;2022-08-25T16:53:20;24.05;;;5.63;;
25249;SDS011;13201;51.148;13.738;2022-08-25T16:56:04;21.33;;;5.03;;
25249;SDS011;13201;51.148;13.738;2022-08-25T16:58:31;16.85;;;5.20;;
25249;SDS011;13201;51.148;13.738;2022-08-25T17:01:04;22.50;;;5.20;;
25249;SDS011;13201;51.148;13.738;2022-08-25T17:03:38;23.30;;;6.22;;
25249;SDS011;13201;51.148;13.738;2022-08-25T17:06:06;39.17;;;17.63;;
25249;SDS011;13201;51.148;13.738;2022-08-25T17:08:33;25.30;;;7.45;;
25249;SDS011;13201;51.148;13.738;2022-08-25T17:11:06;37.70;;;5.93;;
25249;SDS011;13201;51.148;13.738;2022-08-25T17:13:38;21.52;;;5.20;;
25249;SDS011;13201;51.148;13.738;2022-08-25T17:16:06;21.35;;;5.55;;
25249;SDS011;13201;51.148;13.738;2022-08-25T17:18:32;23.50;;;5.43;;